createdAt,value
2022-09-26T00:01:41.185Z,99893.09
2022-09-26T00:04:23.378Z,99882.06
2022-09-26T00:06:55.568Z,99879.03
2022-09-26T00:09:26.036Z,99881.09
2022-09-26T00:11:54.121Z,99868.13
2022-09-26T00:14:27.262Z,99861.66
2022-09-26T00:16:55.400Z,99862.84
2022-09-26T00:19:22.760Z,99858.97
2022-09-26T00:21:49.444Z,99853.59
2022-09-26T00:24:16.527Z,99852.59
2022-09-26T00:26:43.964Z,99853.09
2022-09-26T00:29:13.467Z,99847.56
2022-09-26T00:31:47.621Z,99841.69
2022-09-26T00:34:19.080Z,99845.06
2022-09-26T00:36:48.789Z,99837.16
2022-09-26T00:39:17.375Z,99839.34
2022-09-26T00:41:48.125Z,99831.28
2022-09-26T00:44:48.939Z,99830.78
2022-09-26T00:47:39.452Z,99825.94
2022-09-26T00:50:32.520Z,99825.09
2022-09-26T00:53:11.413Z,99822.06
2022-09-26T00:55:48.178Z,99820.03
2022-09-26T00:58:28.000Z,99808.44
2022-09-26T01:00:57.373Z,99815.69
2022-09-26T01:03:28.009Z,99802.22
2022-09-26T01:05:56.354Z,99798.53
2022-09-26T01:08:36.785Z,99790.09
2022-09-26T01:11:05.333Z,99781.19
2022-09-26T01:13:36.564Z,99790.09
2022-09-26T01:16:03.535Z,99777.50
2022-09-26T01:18:31.644Z,99780.34
2022-09-26T01:21:44.846Z,99771.09
2022-09-26T01:25:16.226Z,99767.22
2022-09-26T01:28:40.117Z,99759.16
2022-09-26T01:31:40.851Z,99759.84
2022-09-26T01:34:33.749Z,99756.16
2022-09-26T01:37:30.686Z,99753.13
2022-09-26T01:40:16.595Z,99749.59
2022-09-26T01:43:25.677Z,99748.56
2022-09-26T01:46:28.097Z,99737.13
2022-09-26T01:49:40.321Z,99729.72
2022-09-26T01:52:47.404Z,99733.44
2022-09-26T01:56:07.898Z,99720.81
2022-09-26T01:58:51.053Z,99711.91
2022-09-26T02:01:23.483Z,99708.88
2022-09-26T02:04:01.426Z,99708.50
2022-09-26T02:07:11.783Z,99705.50
2022-09-26T02:09:59.161Z,99696.41
2022-09-26T02:12:36.654Z,99697.06
2022-09-26T02:15:15.126Z,99691.69
2022-09-26T02:17:54.644Z,99693.38
2022-09-26T02:20:34.716Z,99692.38
2022-09-26T02:23:05.054Z,99683.47
2022-09-26T02:25:39.328Z,99683.25
2022-09-26T02:28:06.820Z,99676.38
2022-09-26T02:30:39.336Z,99676.88
2022-09-26T02:33:05.914Z,99677.53
2022-09-26T02:35:50.950Z,99675.50
2022-09-26T02:38:17.572Z,99666.44
2022-09-26T02:41:19.150Z,99665.91
2022-09-26T02:44:07.494Z,99665.75
2022-09-26T02:47:20.712Z,99660.69
2022-09-26T02:50:37.430Z,99655.81
2022-09-26T02:54:06.822Z,99646.06
2022-09-26T02:57:10.800Z,99643.38
2022-09-26T03:00:03.181Z,99630.09
2022-09-26T03:02:47.971Z,99637.13
2022-09-26T03:05:30.385Z,99625.22
2022-09-26T03:08:26.312Z,99622.69
2022-09-26T03:11:01.794Z,99608.22
2022-09-26T03:13:37.764Z,99610.09
2022-09-26T03:16:08.926Z,99598.47
2022-09-26T03:18:54.555Z,99590.38
2022-09-26T03:21:22.093Z,99595.25
2022-09-26T03:23:49.726Z,99581.63
2022-09-26T03:26:24.620Z,99575.41
2022-09-26T03:28:53.861Z,99570.69
2022-09-26T03:31:22.266Z,99571.50
2022-09-26T03:33:49.485Z,99565.09
2022-09-26T03:36:16.928Z,99554.16
2022-09-26T03:38:46.685Z,99556.03
2022-09-26T03:41:13.657Z,99556.34
2022-09-26T03:43:43.601Z,99549.44
2022-09-26T03:46:12.338Z,99549.09
2022-09-26T03:48:40.184Z,99542.03
2022-09-26T03:51:13.368Z,99549.94
2022-09-26T03:53:48.178Z,99544.38
2022-09-26T03:56:20.365Z,99548.09
2022-09-26T03:58:51.678Z,99534.78
2022-09-26T04:01:22.540Z,99530.44
2022-09-26T04:03:51.306Z,99527.38
2022-09-26T04:06:21.051Z,99525.19
2022-09-26T04:08:55.264Z,99517.28
2022-09-26T04:11:24.634Z,99517.56
2022-09-26T04:13:55.725Z,99506.34
2022-09-26T04:16:24.459Z,99508.66
2022-09-26T04:18:57.479Z,99493.34
2022-09-26T04:21:27.002Z,99490.84
2022-09-26T04:23:55.335Z,99490.34
2022-09-26T04:26:24.334Z,99484.41
2022-09-26T04:28:56.302Z,99487.47
2022-09-26T04:31:27.548Z,99480.56
2022-09-26T04:33:55.333Z,99480.25
2022-09-26T04:36:23.566Z,99488.19
2022-09-26T04:38:50.204Z,99485.84
2022-09-26T04:41:21.987Z,99481.28
2022-09-26T04:43:49.611Z,99481.81
2022-09-26T04:46:28.371Z,99476.78
2022-09-26T04:49:01.449Z,99474.09
2022-09-26T04:51:32.748Z,99473.41
2022-09-26T04:53:59.698Z,99468.03
2022-09-26T04:56:29.642Z,99474.28
2022-09-26T04:59:01.679Z,99463.69
2022-09-26T05:01:28.588Z,99470.09
2022-09-26T05:03:57.010Z,99463.84
2022-09-26T05:06:24.560Z,99465.34
2022-09-26T05:08:53.424Z,99460.81
2022-09-26T05:11:21.491Z,99458.97
2022-09-26T05:13:54.188Z,99450.22
2022-09-26T05:16:21.569Z,99454.56
2022-09-26T05:18:54.426Z,99444.00
2022-09-26T05:21:21.168Z,99449.56
2022-09-26T05:24:06.966Z,99451.25
2022-09-26T05:26:49.488Z,99442.31
2022-09-26T05:29:17.390Z,99436.91
2022-09-26T05:31:46.017Z,99440.13
2022-09-26T05:34:19.265Z,99434.72
2022-09-26T05:36:47.328Z,99435.56
2022-09-26T05:39:32.556Z,99436.06
2022-09-26T05:42:02.940Z,99428.63
2022-09-26T05:44:30.939Z,99438.38
2022-09-26T05:46:59.077Z,99424.09
2022-09-26T05:49:26.543Z,99422.06
2022-09-26T05:51:53.975Z,99419.00
2022-09-26T05:54:33.353Z,99413.44
2022-09-26T05:57:03.157Z,99420.16
2022-09-26T05:59:37.678Z,99408.63
2022-09-26T06:02:07.434Z,99417.03
2022-09-26T06:04:34.207Z,99415.00
2022-09-26T06:07:03.471Z,99405.91
2022-09-26T06:09:30.139Z,99407.88
2022-09-26T06:11:59.899Z,99426.19
2022-09-26T06:14:27.199Z,99405.09
2022-09-26T06:16:53.886Z,99400.19
2022-09-26T06:19:23.195Z,99404.50
2022-09-26T06:21:50.922Z,99401.09
2022-09-26T06:24:18.633Z,99402.69
2022-09-26T06:26:46.491Z,99397.75
2022-09-26T06:29:13.190Z,99393.50
2022-09-26T06:31:40.608Z,99390.50
2022-09-26T06:34:08.212Z,99387.25
2022-09-26T06:36:35.850Z,99385.16
2022-09-26T06:39:02.977Z,99379.88
2022-09-26T06:41:29.815Z,99379.31
2022-09-26T06:43:58.228Z,99369.63
2022-09-26T06:46:34.664Z,99371.16
2022-09-26T06:49:01.470Z,99374.94
2022-09-26T06:51:29.609Z,99365.84
2022-09-26T06:53:58.596Z,99365.53
2022-09-26T06:56:26.831Z,99368.88
2022-09-26T06:58:53.506Z,99357.13
2022-09-26T07:01:20.309Z,99359.66
2022-09-26T07:03:47.016Z,99354.25
2022-09-26T07:06:14.403Z,99361.59
2022-09-26T07:09:01.630Z,99353.59
2022-09-26T07:11:38.151Z,99347.38
2022-09-26T07:14:16.745Z,99354.25
2022-09-26T07:16:51.768Z,99344.38
2022-09-26T07:19:18.609Z,99339.06
2022-09-26T07:21:47.837Z,99344.69
2022-09-26T07:24:14.538Z,99342.97
2022-09-26T07:26:42.901Z,99341.34
2022-09-26T07:29:10.859Z,99339.59
2022-09-26T07:31:37.702Z,99333.22
2022-09-26T07:34:04.789Z,99331.22
2022-09-26T07:36:31.839Z,99329.81
2022-09-26T07:39:05.392Z,99332.59
2022-09-26T07:41:32.469Z,99324.75
2022-09-26T07:47:05.262Z,99330.44
2022-09-26T07:49:50.929Z,99325.97
2022-09-26T07:52:22.889Z,99327.66
2022-09-26T07:54:52.768Z,99316.94
2022-09-26T07:57:19.557Z,99323.72
2022-09-26T07:59:50.397Z,99327.22
2022-09-26T08:02:35.235Z,99327.41
2022-09-26T08:05:05.182Z,99315.59
2022-09-26T08:07:35.486Z,99325.41
2022-09-26T08:10:05.943Z,99317.50
2022-09-26T08:12:39.886Z,99322.47
2022-09-26T08:15:08.895Z,99339.16
2022-09-26T08:17:35.589Z,99324.13
2022-09-26T08:20:04.008Z,99322.50
2022-09-26T08:22:35.898Z,99320.47
2022-09-26T08:25:03.246Z,99308.47
2022-09-26T08:27:35.141Z,99315.94
2022-09-26T08:30:02.825Z,99309.38
2022-09-26T08:32:32.463Z,99317.50
2022-09-26T08:35:03.071Z,99307.25
2022-09-26T08:37:31.317Z,99310.25
2022-09-26T08:39:59.134Z,99315.44
2022-09-26T08:43:04.198Z,99318.72
2022-09-26T08:45:49.255Z,99315.00
2022-09-26T08:48:47.435Z,99312.94
2022-09-26T08:51:47.717Z,99319.63
2022-09-26T08:57:47.961Z,99316.34
2022-09-26T09:00:22.661Z,99308.00
2022-09-26T09:03:00.400Z,99308.56
2022-09-26T09:05:34.427Z,99308.50
2022-09-26T09:08:11.764Z,99298.25
2022-09-26T09:11:07.842Z,99295.97
2022-09-26T09:14:13.457Z,99298.91
2022-09-26T09:17:31.444Z,99285.13
2022-09-26T09:21:18.554Z,99284.78
2022-09-26T09:24:07.742Z,99283.19
2022-09-26T09:30:17.409Z,99283.28
2022-09-26T09:33:14.979Z,99279.72
2022-09-26T09:35:52.555Z,99281.00
2022-09-26T09:38:33.406Z,99274.31
2022-09-26T09:41:26.624Z,99270.34
2022-09-26T09:44:22.024Z,99269.88
2022-09-26T09:46:50.814Z,99270.13
2022-09-26T09:49:24.578Z,99265.75
2022-09-26T09:52:31.741Z,99264.75
2022-09-26T09:55:23.342Z,99261.22
2022-09-26T09:58:09.848Z,99257.25
2022-09-26T10:00:51.229Z,99251.19
2022-09-26T10:03:46.032Z,99252.69
2022-09-26T10:06:44.248Z,99254.72
2022-09-26T10:09:38.621Z,99248.47
2022-09-26T10:12:20.254Z,99253.88
2022-09-26T10:15:11.654Z,99246.19
2022-09-26T10:17:39.481Z,99250.56
2022-09-26T10:20:17.848Z,99243.28
2022-09-26T10:22:45.643Z,99238.50
2022-09-26T10:25:21.499Z,99236.84
2022-09-26T10:27:55.331Z,99229.13
2022-09-26T10:30:32.569Z,99234.72
2022-09-26T10:33:03.395Z,99224.09
2022-09-26T10:38:30.029Z,99216.41
2022-09-26T10:41:05.233Z,99212.00
2022-09-26T10:43:38.140Z,99220.97
2022-09-26T10:46:24.043Z,99203.06
2022-09-26T10:49:02.319Z,99209.09
2022-09-26T10:51:50.625Z,99211.16
2022-09-26T10:54:41.202Z,99212.19
2022-09-26T10:57:22.773Z,99195.94
2022-09-26T10:59:52.827Z,99198.22
2022-09-26T11:02:27.132Z,99204.28
2022-09-26T11:05:25.379Z,99198.22
2022-09-26T11:07:53.044Z,99187.00
2022-09-26T11:10:32.637Z,99189.88
2022-09-26T11:13:16.535Z,99185.47
2022-09-26T11:16:05.029Z,99170.47
2022-09-26T11:18:50.740Z,99178.78
2022-09-26T11:21:58.591Z,99171.31
2022-09-26T11:25:03.596Z,99169.47
2022-09-26T11:27:49.157Z,99166.56
2022-09-26T11:30:22.559Z,99158.63
2022-09-26T11:32:57.198Z,99150.22
2022-09-26T11:35:33.180Z,99147.88
2022-09-26T11:38:55.076Z,99144.16
2022-09-26T11:41:44.340Z,99144.06
2022-09-26T11:45:01.335Z,99139.38
2022-09-26T11:48:28.323Z,99137.94
2022-09-26T11:51:27.615Z,99133.56
2022-09-26T11:54:40.542Z,99117.03
2022-09-26T11:57:28.558Z,99128.31
2022-09-26T12:00:16.100Z,99117.03
2022-09-26T12:06:43.330Z,99113.19
2022-09-26T12:09:45.415Z,99108.72
2022-09-26T12:16:25.467Z,99100.31
2022-09-26T12:19:23.217Z,99101.59
2022-09-26T12:22:28.478Z,99095.38
2022-09-26T12:25:48.375Z,99099.78
2022-09-26T12:28:55.713Z,99081.28
2022-09-26T12:31:43.696Z,99087.63
2022-09-26T12:34:47.369Z,99098.53
2022-09-26T12:38:15.933Z,99093.78
2022-09-26T12:41:45.021Z,99092.81
2022-09-26T12:45:01.538Z,99086.78
2022-09-26T12:48:01.661Z,99091.16
2022-09-26T12:51:22.332Z,99092.03
2022-09-26T12:54:35.192Z,99075.78
2022-09-26T12:57:43.098Z,99074.28
2022-09-26T13:00:21.600Z,99066.38
2022-09-26T13:03:42.342Z,99068.91
2022-09-26T13:06:52.847Z,99068.47
2022-09-26T13:10:29.400Z,99067.03
2022-09-26T13:13:39.281Z,99065.34
2022-09-26T13:16:46.622Z,99061.41
2022-09-26T13:19:31.489Z,99061.81
2022-09-26T13:22:05.844Z,99063.88
2022-09-26T13:28:24.169Z,99072.16
2022-09-26T13:31:10.358Z,99069.31
2022-09-26T13:36:47.050Z,99068.63
2022-09-26T13:39:52.666Z,99071.06
2022-09-26T13:42:36.291Z,99064.66
2022-09-26T13:45:39.850Z,99067.94
2022-09-26T13:48:50.186Z,99058.56
2022-09-26T13:55:03.094Z,99046.44
2022-09-26T13:57:36.307Z,99045.63
2022-09-26T14:00:32.274Z,99050.00
2022-09-26T14:09:23.778Z,99038.03
2022-09-26T14:12:20.230Z,99036.19
2022-09-26T14:15:16.108Z,99030.16
2022-09-26T14:17:45.879Z,99025.66
2022-09-26T14:20:27.254Z,99020.63
2022-09-26T14:22:58.754Z,99013.59
2022-09-26T14:25:57.747Z,99011.50
2022-09-26T14:28:43.424Z,99008.38
2022-09-26T14:34:20.001Z,99000.88
2022-09-26T14:36:52.478Z,98994.00
2022-09-26T14:39:47.879Z,98984.19
2022-09-26T14:42:32.797Z,98981.50
2022-09-26T14:45:06.504Z,98975.00
2022-09-26T14:48:01.074Z,98973.16
2022-09-26T14:50:38.011Z,98968.16
2022-09-26T14:53:29.387Z,98967.06
2022-09-26T14:56:41.234Z,98966.25
2022-09-26T14:59:43.426Z,98965.25
2022-09-26T15:02:34.593Z,98956.88
2022-09-26T15:05:25.262Z,98944.84
2022-09-26T15:07:55.810Z,98935.50
2022-09-26T15:10:42.642Z,98948.38
2022-09-26T15:13:39.617Z,98940.66
2022-09-26T15:16:37.673Z,98921.13
2022-09-26T15:19:21.154Z,98930.25
2022-09-26T15:22:14.045Z,98924.66
2022-09-26T15:24:41.809Z,98924.03
2022-09-26T15:27:29.578Z,98920.72
2022-09-26T15:30:20.275Z,98921.13
2022-09-26T15:35:32.808Z,98917.38
2022-09-26T15:38:09.521Z,98911.34
2022-09-26T15:40:36.839Z,98904.94
2022-09-26T15:43:09.599Z,98910.94
2022-09-26T15:45:49.098Z,98903.28
2022-09-26T15:48:25.369Z,98899.75
2022-09-26T15:51:03.219Z,98911.56
2022-09-26T15:53:53.543Z,98899.09
2022-09-26T15:56:55.069Z,98894.13
2022-09-26T15:59:41.335Z,98891.81
2022-09-26T16:02:37.834Z,98887.22
2022-09-26T16:05:12.845Z,98885.34
2022-09-26T16:07:48.335Z,98878.06
2022-09-26T16:10:31.784Z,98883.63
2022-09-26T16:13:00.480Z,98869.94
2022-09-26T16:15:31.575Z,98867.84
2022-09-26T16:17:59.264Z,98868.25
2022-09-26T16:20:32.755Z,98870.31
2022-09-26T16:23:05.317Z,98868.22
2022-09-26T16:25:48.044Z,98871.34
2022-09-26T16:28:17.603Z,98869.25
2022-09-26T16:31:00.060Z,98864.25
2022-09-26T16:33:37.691Z,98860.09
2022-09-26T16:36:35.065Z,98846.16
2022-09-26T16:39:29.241Z,98841.81
2022-09-26T16:42:12.773Z,98852.16
2022-09-26T16:44:49.799Z,98838.03
2022-09-26T16:47:42.749Z,98837.00
2022-09-26T16:50:35.969Z,98836.13
2022-09-26T16:53:08.979Z,98830.75
2022-09-26T16:55:38.869Z,98820.19
2022-09-26T16:58:06.433Z,98819.06
2022-09-26T17:00:54.209Z,98826.50
2022-09-26T17:03:30.069Z,98817.59
2022-09-26T17:05:59.795Z,98822.53
2022-09-26T17:08:28.577Z,98824.81
2022-09-26T17:11:02.818Z,98812.34
2022-09-26T17:13:48.070Z,98821.09
2022-09-26T17:16:36.221Z,98819.25
2022-09-26T17:19:03.703Z,98804.91
2022-09-26T17:21:30.651Z,98805.94
2022-09-26T17:23:57.467Z,98799.09
2022-09-26T17:26:24.354Z,98799.88
2022-09-26T17:28:53.921Z,98800.13
2022-09-26T17:31:21.133Z,98806.34
2022-09-26T17:33:53.652Z,98802.81
2022-09-26T17:36:29.335Z,98802.81
2022-09-26T17:38:59.447Z,98786.63
2022-09-26T17:41:27.897Z,98791.38
2022-09-26T17:44:00.990Z,98797.00
2022-09-26T17:46:28.842Z,98787.69
2022-09-26T17:48:56.556Z,98792.84
2022-09-26T17:51:24.570Z,98788.69
2022-09-26T17:53:52.662Z,98787.03
2022-09-26T17:56:20.954Z,98788.69
2022-09-26T17:58:51.864Z,98780.81
2022-09-26T18:01:33.466Z,98781.25
2022-09-26T18:04:07.462Z,98779.38
2022-09-26T18:06:36.815Z,98773.97
2022-09-26T18:09:07.655Z,98776.47
2022-09-26T18:11:37.969Z,98763.00
2022-09-26T18:14:08.157Z,98771.28
2022-09-26T18:16:35.572Z,98757.81
2022-09-26T18:19:07.252Z,98759.28
2022-09-26T18:21:35.810Z,98755.75
2022-09-26T18:24:06.863Z,98773.59
2022-09-26T18:26:45.003Z,98761.56
2022-09-26T18:29:29.150Z,98766.97
2022-09-26T18:34:39.644Z,98769.66
2022-09-26T18:37:08.950Z,98768.44
2022-09-26T18:42:22.879Z,98763.44
2022-09-26T18:45:00.347Z,98759.69
2022-09-26T18:50:33.366Z,98764.91
2022-09-26T18:56:04.299Z,98749.56
2022-09-26T18:58:32.459Z,98760.53
2022-09-26T19:01:20.756Z,98747.28
2022-09-26T19:12:04.917Z,98736.06
2022-09-26T19:17:13.394Z,98739.59
2022-09-26T19:19:42.121Z,98745.84
2022-09-26T19:22:17.508Z,98733.38
2022-09-26T19:24:55.779Z,98739.41
2022-09-26T19:33:00.652Z,98720.31
2022-09-26T19:35:35.930Z,98720.53
2022-09-26T19:38:23.391Z,98719.47
2022-09-26T19:54:45.231Z,98721.81
2022-09-26T19:57:19.735Z,98717.06
2022-09-26T19:59:48.472Z,98710.22
2022-09-26T20:02:39.803Z,98709.34
2022-09-26T20:05:21.040Z,98707.50
2022-09-26T20:07:48.923Z,98718.28
2022-09-26T20:10:22.597Z,98707.88
2022-09-26T20:12:49.579Z,98714.75
2022-09-26T20:15:23.051Z,98701.25
2022-09-26T20:17:51.147Z,98707.66
2022-09-26T20:20:26.340Z,98704.81
2022-09-26T20:23:02.934Z,98708.34
2022-09-26T20:25:37.167Z,98700.47
2022-09-26T20:28:09.612Z,98700.88
2022-09-26T20:30:51.636Z,98690.84
2022-09-26T20:33:23.796Z,98702.28
2022-09-26T20:38:51.882Z,98686.09
2022-09-26T20:41:38.624Z,98700.59
2022-09-26T21:06:33.254Z,98667.69
2022-09-26T21:09:10.849Z,98672.88
2022-09-26T21:11:37.684Z,98674.31
2022-09-26T21:14:04.519Z,98673.06
2022-09-26T21:16:31.713Z,98671.44
2022-09-26T21:19:01.761Z,98667.91
2022-09-26T21:21:31.680Z,98670.59
2022-09-26T21:23:59.792Z,98666.84
2022-09-26T21:26:31.145Z,98673.06
2022-09-26T21:28:58.556Z,98670.59
2022-09-26T21:31:31.975Z,98655.06
2022-09-26T21:34:00.993Z,98660.63
2022-09-26T21:36:39.764Z,98663.34
2022-09-26T21:39:07.226Z,98646.53
2022-09-26T21:41:37.502Z,98648.19
2022-09-26T21:44:17.424Z,98645.69
2022-09-26T21:46:44.938Z,98652.09
2022-09-26T21:49:11.675Z,98643.19
2022-09-26T21:51:38.963Z,98638.03
2022-09-26T21:54:41.421Z,98643.41
2022-09-26T21:57:17.881Z,98635.53
2022-09-26T21:59:48.278Z,98636.53
2022-09-26T22:02:15.232Z,98629.66
2022-09-26T22:04:42.006Z,98631.53
2022-09-26T22:07:09.475Z,98624.69
2022-09-26T22:09:36.187Z,98631.09
2022-09-26T22:12:03.043Z,98618.47
2022-09-26T22:14:29.807Z,98620.94
2022-09-26T22:16:57.559Z,98614.72
2022-09-26T22:19:24.618Z,98616.41
2022-09-26T22:21:53.187Z,98611.41
2022-09-26T22:24:20.327Z,98599.78
2022-09-26T22:26:47.191Z,98596.66
2022-09-26T22:29:14.208Z,98596.28
2022-09-26T22:31:42.667Z,98601.25
2022-09-26T22:34:09.569Z,98593.34
2022-09-26T22:36:38.963Z,98586.13
2022-09-26T22:39:06.162Z,98593.16
2022-09-26T22:41:33.625Z,98585.50
2022-09-26T22:44:00.941Z,98589.00
2022-09-26T22:46:27.767Z,98578.41
2022-09-26T22:48:54.820Z,98581.53
2022-09-26T22:51:21.609Z,98573.44
2022-09-26T22:53:48.588Z,98581.13
2022-09-26T22:56:16.393Z,98576.78
2022-09-26T22:58:50.615Z,98582.78
2022-09-26T23:01:22.904Z,98575.53
2022-09-26T23:04:00.856Z,98574.69
2022-09-26T23:06:28.462Z,98568.69
2022-09-26T23:08:55.722Z,98569.69
2022-09-26T23:11:24.275Z,98572.19
2022-09-26T23:13:55.683Z,98573.03
2022-09-26T23:16:28.483Z,98579.28
2022-09-26T23:19:06.310Z,98578.84
2022-09-26T23:21:35.356Z,98573.25
2022-09-26T23:24:02.845Z,98570.56
2022-09-26T23:26:32.435Z,98566.19
2022-09-26T23:28:59.795Z,98564.72
2022-09-26T23:31:28.842Z,98566.38
2022-09-26T23:33:57.376Z,98558.50
2022-09-26T23:36:25.482Z,98553.13
2022-09-26T23:38:59.819Z,98551.25
2022-09-26T23:41:26.692Z,98552.31
2022-09-26T23:43:53.468Z,98551.25
2022-09-26T23:46:20.650Z,98552.06
2022-09-26T23:48:47.591Z,98549.59
2022-09-26T23:51:14.417Z,98553.75
2022-09-26T23:53:41.331Z,98551.06
2022-09-26T23:56:14.136Z,98542.97
2022-09-26T23:58:47.097Z,98543.38
